Kezdőlap
METAR-TAF:

METAR-TAF

Repülőterek :

Kigoma, Tanzánia

földrajzi szélesség: 04-53S, földrajzi hosszúság: 029-38E, magasság: 882 m

Jelenlegi meteorológiai megfigyelések

A jelentés 4 órával és 42 perccel ezelõtt készült, 20:00 UTC
Szélcsend
Hőmérséklet 23°C
Páratartalom 83%
Légköri nyomás 1015 hPa
Látótávolság 10 km, vagy több
Kevés felhő 2100 lábon
Kevés felhő 2200 lábon, Cumulonimbus.
Szakadozott felhőzet 8000 lábon

METAR: HTKA 272000Z 00000KT 9999 FEW021 FEW022CB BKN080 23/20 Q1015 NOSIG

Idő: 03:42 (00:42 UTC)

Előrejelzés

A jelentés 13 órával és 42 perccel ezelõtt készült, 11:00 UTC
Az előrejelzés 27-én 12 óra UTC és 28-én 12 óra UTC között érvényes
Különbözõ irányokból fújó szél 2 kt
Látótávolság 10 km, vagy több
Kevés felhő 2200 lábon
Kevés felhő 2300 lábon, Cumulonimbus.

TAF: HTKA 271100Z 2712/2812 VRB02KT 9999 FEW022 FEW023CB

Meteorológiai megfigyelések és előrejelzések több, mint 4000 repülőtéren (METAR és TAF jelentéseket).

A térképen piros és sárga pontok jelzik az elérhető meteorológiai állomásokat.

Mozgassa az egeret a pont fölött, hogy megjelenjen az állomás neve.

Azután kattintson az időjárási megfigyelések és előrejelzések megtekintéséhez.

A térkép megváltoztatása: kattintson a fekete keresztel jelölt zöld gombra ráközelítéshez, a vonallal jelölt zöld gombra távolításhoz, vagy a zöld nyilakra a szomszédos térképek eléréséhez.


METAR-TAF: